sensor_id;sensor_type;location;lat;lon;timestamp;P1;durP1;ratioP1;P2;durP2;ratioP2
6007;SDS011;3032;49.484;11.112;2023-03-03T00:00:25;31.40;;;18.10;;
6007;SDS011;3032;49.484;11.112;2023-03-03T00:02:51;30.63;;;18.13;;
6007;SDS011;3032;49.484;11.112;2023-03-03T00:05:16;37.17;;;19.70;;
6007;SDS011;3032;49.484;11.112;2023-03-03T00:07:45;32.00;;;18.37;;
6007;SDS011;3032;49.484;11.112;2023-03-03T00:10:12;33.05;;;18.08;;
6007;SDS011;3032;49.484;11.112;2023-03-03T00:12:44;34.83;;;17.85;;
6007;SDS011;3032;49.484;11.112;2023-03-03T00:15:15;32.95;;;18.67;;
6007;SDS011;3032;49.484;11.112;2023-03-03T00:17:43;30.55;;;17.77;;
6007;SDS011;3032;49.484;11.112;2023-03-03T00:26:03;33.05;;;18.15;;
6007;SDS011;3032;49.484;11.112;2023-03-03T00:28:44;32.25;;;18.88;;
6007;SDS011;3032;49.484;11.112;2023-03-03T00:31:14;31.83;;;18.13;;
6007;SDS011;3032;49.484;11.112;2023-03-03T00:33:47;31.25;;;18.52;;
6007;SDS011;3032;49.484;11.112;2023-03-03T00:36:37;29.13;;;18.33;;
6007;SDS011;3032;49.484;11.112;2023-03-03T00:42:00;36.05;;;18.48;;
6007;SDS011;3032;49.484;11.112;2023-03-03T00:52:30;33.40;;;17.17;;
6007;SDS011;3032;49.484;11.112;2023-03-03T00:55:00;36.40;;;18.40;;
6007;SDS011;3032;49.484;11.112;2023-03-03T00:57:25;29.97;;;17.57;;
6007;SDS011;3032;49.484;11.112;2023-03-03T00:59:51;39.73;;;19.50;;
6007;SDS011;3032;49.484;11.112;2023-03-03T01:02:16;32.80;;;17.30;;
6007;SDS011;3032;49.484;11.112;2023-03-03T01:04:43;28.17;;;17.20;;
6007;SDS011;3032;49.484;11.112;2023-03-03T01:07:14;32.08;;;17.40;;
6007;SDS011;3032;49.484;11.112;2023-03-03T01:09:40;31.23;;;17.63;;
6007;SDS011;3032;49.484;11.112;2023-03-03T01:12:05;30.57;;;17.17;;
6007;SDS011;3032;49.484;11.112;2023-03-03T01:14:31;31.67;;;17.20;;
6007;SDS011;3032;49.484;11.112;2023-03-03T01:16:57;32.10;;;17.47;;
6007;SDS011;3032;49.484;11.112;2023-03-03T01:19:23;33.92;;;18.40;;
6007;SDS011;3032;49.484;11.112;2023-03-03T01:21:49;34.53;;;17.30;;
6007;SDS011;3032;49.484;11.112;2023-03-03T01:24:14;31.87;;;17.13;;
6007;SDS011;3032;49.484;11.112;2023-03-03T01:26:40;31.33;;;17.83;;
6007;SDS011;3032;49.484;11.112;2023-03-03T01:29:05;28.60;;;16.67;;
6007;SDS011;3032;49.484;11.112;2023-03-03T01:31:31;29.47;;;16.67;;
6007;SDS011;3032;49.484;11.112;2023-03-03T01:33:57;27.67;;;17.30;;
6007;SDS011;3032;49.484;11.112;2023-03-03T01:36:23;33.90;;;18.60;;
6007;SDS011;3032;49.484;11.112;2023-03-03T01:38:50;33.08;;;18.30;;
6007;SDS011;3032;49.484;11.112;2023-03-03T01:41:15;30.43;;;17.23;;
6007;SDS011;3032;49.484;11.112;2023-03-03T01:43:45;29.33;;;17.17;;
6007;SDS011;3032;49.484;11.112;2023-03-03T01:49:31;30.25;;;17.58;;
6007;SDS011;3032;49.484;11.112;2023-03-03T01:52:08;31.80;;;18.42;;
6007;SDS011;3032;49.484;11.112;2023-03-03T01:54:49;31.80;;;17.67;;
6007;SDS011;3032;49.484;11.112;2023-03-03T01:57:21;30.33;;;16.55;;
6007;SDS011;3032;49.484;11.112;2023-03-03T01:59:51;32.45;;;19.00;;
6007;SDS011;3032;49.484;11.112;2023-03-03T02:02:19;38.85;;;18.42;;
6007;SDS011;3032;49.484;11.112;2023-03-03T02:04:46;30.75;;;16.83;;
6007;SDS011;3032;49.484;11.112;2023-03-03T02:07:11;28.83;;;17.37;;
6007;SDS011;3032;49.484;11.112;2023-03-03T02:15:15;33.10;;;17.20;;
6007;SDS011;3032;49.484;11.112;2023-03-03T02:17:56;28.85;;;17.33;;
6007;SDS011;3032;49.484;11.112;2023-03-03T02:20:45;30.50;;;17.83;;
6007;SDS011;3032;49.484;11.112;2023-03-03T02:28:22;29.75;;;16.90;;
6007;SDS011;3032;49.484;11.112;2023-03-03T02:30:49;36.67;;;18.33;;
6007;SDS011;3032;49.484;11.112;2023-03-03T02:33:18;35.22;;;16.10;;
6007;SDS011;3032;49.484;11.112;2023-03-03T02:35:43;35.60;;;19.10;;
6007;SDS011;3032;49.484;11.112;2023-03-03T02:38:42;45.50;;;22.17;;
6007;SDS011;3032;49.484;11.112;2023-03-03T02:41:07;41.88;;;20.40;;
6007;SDS011;3032;49.484;11.112;2023-03-03T02:43:43;38.15;;;18.75;;
6007;SDS011;3032;49.484;11.112;2023-03-03T02:46:11;35.97;;;19.23;;
6007;SDS011;3032;49.484;11.112;2023-03-03T02:48:36;41.23;;;21.03;;
6007;SDS011;3032;49.484;11.112;2023-03-03T02:51:02;38.13;;;20.77;;
6007;SDS011;3032;49.484;11.112;2023-03-03T02:53:28;34.10;;;18.57;;
6007;SDS011;3032;49.484;11.112;2023-03-03T02:55:53;30.53;;;18.40;;
6007;SDS011;3032;49.484;11.112;2023-03-03T02:58:19;31.27;;;17.57;;
6007;SDS011;3032;49.484;11.112;2023-03-03T03:00:44;36.57;;;19.30;;
6007;SDS011;3032;49.484;11.112;2023-03-03T03:03:11;38.70;;;18.73;;
6007;SDS011;3032;49.484;11.112;2023-03-03T03:05:37;35.80;;;18.98;;
6007;SDS011;3032;49.484;11.112;2023-03-03T03:08:03;36.00;;;18.90;;
6007;SDS011;3032;49.484;11.112;2023-03-03T03:10:28;36.17;;;18.77;;
6007;SDS011;3032;49.484;11.112;2023-03-03T03:12:54;32.93;;;18.27;;
6007;SDS011;3032;49.484;11.112;2023-03-03T03:15:19;32.13;;;17.37;;
6007;SDS011;3032;49.484;11.112;2023-03-03T03:17:45;38.90;;;19.60;;
6007;SDS011;3032;49.484;11.112;2023-03-03T03:20:11;40.90;;;19.87;;
6007;SDS011;3032;49.484;11.112;2023-03-03T03:22:36;36.13;;;19.40;;
6007;SDS011;3032;49.484;11.112;2023-03-03T03:25:02;39.53;;;19.80;;
6007;SDS011;3032;49.484;11.112;2023-03-03T03:27:27;38.87;;;20.70;;
6007;SDS011;3032;49.484;11.112;2023-03-03T03:29:53;37.80;;;19.87;;
6007;SDS011;3032;49.484;11.112;2023-03-03T03:32:19;37.67;;;19.70;;
6007;SDS011;3032;49.484;11.112;2023-03-03T03:34:44;33.90;;;18.73;;
6007;SDS011;3032;49.484;11.112;2023-03-03T03:37:10;35.53;;;18.70;;
6007;SDS011;3032;49.484;11.112;2023-03-03T03:39:35;35.60;;;18.23;;
6007;SDS011;3032;49.484;11.112;2023-03-03T03:42:01;31.70;;;16.50;;
6007;SDS011;3032;49.484;11.112;2023-03-03T03:44:27;39.83;;;18.80;;
6007;SDS011;3032;49.484;11.112;2023-03-03T03:46:52;31.47;;;17.87;;
6007;SDS011;3032;49.484;11.112;2023-03-03T03:49:18;34.57;;;18.30;;
6007;SDS011;3032;49.484;11.112;2023-03-03T03:51:44;36.70;;;18.08;;
6007;SDS011;3032;49.484;11.112;2023-03-03T03:54:10;34.77;;;19.80;;
6007;SDS011;3032;49.484;11.112;2023-03-03T03:56:35;31.00;;;17.50;;
6007;SDS011;3032;49.484;11.112;2023-03-03T03:59:01;33.43;;;18.27;;
6007;SDS011;3032;49.484;11.112;2023-03-03T04:01:26;33.13;;;17.47;;
6007;SDS011;3032;49.484;11.112;2023-03-03T04:03:52;33.70;;;17.70;;
6007;SDS011;3032;49.484;11.112;2023-03-03T04:06:18;31.17;;;17.30;;
6007;SDS011;3032;49.484;11.112;2023-03-03T04:08:43;30.50;;;17.07;;
6007;SDS011;3032;49.484;11.112;2023-03-03T04:11:09;33.90;;;17.17;;
6007;SDS011;3032;49.484;11.112;2023-03-03T04:13:35;29.50;;;17.10;;
6007;SDS011;3032;49.484;11.112;2023-03-03T04:16:01;32.60;;;17.20;;
6007;SDS011;3032;49.484;11.112;2023-03-03T04:18:26;29.98;;;16.48;;
6007;SDS011;3032;49.484;11.112;2023-03-03T04:20:52;33.23;;;17.07;;
6007;SDS011;3032;49.484;11.112;2023-03-03T04:23:18;33.67;;;17.45;;
6007;SDS011;3032;49.484;11.112;2023-03-03T04:25:48;32.60;;;18.02;;
6007;SDS011;3032;49.484;11.112;2023-03-03T04:28:14;35.88;;;18.45;;
6007;SDS011;3032;49.484;11.112;2023-03-03T04:30:41;29.95;;;17.67;;
6007;SDS011;3032;49.484;11.112;2023-03-03T04:33:06;32.50;;;17.33;;
6007;SDS011;3032;49.484;11.112;2023-03-03T04:35:32;31.63;;;18.25;;
6007;SDS011;3032;49.484;11.112;2023-03-03T04:37:58;31.83;;;17.93;;
6007;SDS011;3032;49.484;11.112;2023-03-03T04:40:24;33.13;;;18.20;;
6007;SDS011;3032;49.484;11.112;2023-03-03T04:42:49;29.80;;;16.83;;
6007;SDS011;3032;49.484;11.112;2023-03-03T04:45:15;31.50;;;17.43;;
6007;SDS011;3032;49.484;11.112;2023-03-03T04:47:41;32.37;;;17.90;;
6007;SDS011;3032;49.484;11.112;2023-03-03T04:50:07;34.87;;;17.63;;
6007;SDS011;3032;49.484;11.112;2023-03-03T04:52:34;37.78;;;17.50;;
6007;SDS011;3032;49.484;11.112;2023-03-03T04:54:59;31.30;;;17.67;;
6007;SDS011;3032;49.484;11.112;2023-03-03T04:57:25;32.03;;;17.40;;
6007;SDS011;3032;49.484;11.112;2023-03-03T04:59:51;31.30;;;17.70;;
6007;SDS011;3032;49.484;11.112;2023-03-03T05:02:16;36.70;;;17.70;;
6007;SDS011;3032;49.484;11.112;2023-03-03T05:04:42;31.23;;;16.77;;
6007;SDS011;3032;49.484;11.112;2023-03-03T05:07:07;30.23;;;16.70;;
6007;SDS011;3032;49.484;11.112;2023-03-03T05:09:33;30.23;;;17.73;;
6007;SDS011;3032;49.484;11.112;2023-03-03T05:11:59;32.10;;;16.55;;
6007;SDS011;3032;49.484;11.112;2023-03-03T05:14:25;32.17;;;17.17;;
6007;SDS011;3032;49.484;11.112;2023-03-03T05:16:51;31.58;;;17.38;;
6007;SDS011;3032;49.484;11.112;2023-03-03T05:19:17;32.70;;;16.98;;
6007;SDS011;3032;49.484;11.112;2023-03-03T05:21:43;28.53;;;16.27;;
6007;SDS011;3032;49.484;11.112;2023-03-03T05:24:09;36.13;;;17.90;;
6007;SDS011;3032;49.484;11.112;2023-03-03T05:26:37;32.50;;;17.35;;
6007;SDS011;3032;49.484;11.112;2023-03-03T05:29:03;29.58;;;16.45;;
6007;SDS011;3032;49.484;11.112;2023-03-03T05:31:29;28.33;;;16.30;;
6007;SDS011;3032;49.484;11.112;2023-03-03T05:33:54;30.30;;;16.90;;
6007;SDS011;3032;49.484;11.112;2023-03-03T05:36:20;34.20;;;18.07;;
6007;SDS011;3032;49.484;11.112;2023-03-03T05:38:46;31.03;;;17.30;;
6007;SDS011;3032;49.484;11.112;2023-03-03T05:41:11;29.90;;;16.20;;
6007;SDS011;3032;49.484;11.112;2023-03-03T05:43:37;32.97;;;16.90;;
6007;SDS011;3032;49.484;11.112;2023-03-03T05:46:02;38.33;;;16.50;;
6007;SDS011;3032;49.484;11.112;2023-03-03T05:48:28;34.07;;;16.87;;
6007;SDS011;3032;49.484;11.112;2023-03-03T05:50:56;32.27;;;17.30;;
6007;SDS011;3032;49.484;11.112;2023-03-03T05:53:23;29.40;;;16.10;;
6007;SDS011;3032;49.484;11.112;2023-03-03T05:55:49;30.53;;;16.40;;
6007;SDS011;3032;49.484;11.112;2023-03-03T05:58:14;30.40;;;16.80;;
6007;SDS011;3032;49.484;11.112;2023-03-03T06:00:40;32.50;;;15.87;;
6007;SDS011;3032;49.484;11.112;2023-03-03T06:03:05;35.97;;;17.33;;
6007;SDS011;3032;49.484;11.112;2023-03-03T06:05:31;39.97;;;17.03;;
6007;SDS011;3032;49.484;11.112;2023-03-03T06:07:57;30.17;;;16.80;;
6007;SDS011;3032;49.484;11.112;2023-03-03T06:10:23;36.90;;;17.25;;
6007;SDS011;3032;49.484;11.112;2023-03-03T06:12:49;32.27;;;17.50;;
6007;SDS011;3032;49.484;11.112;2023-03-03T06:15:14;31.30;;;17.40;;
6007;SDS011;3032;49.484;11.112;2023-03-03T06:17:40;33.30;;;18.03;;
6007;SDS011;3032;49.484;11.112;2023-03-03T06:20:06;28.43;;;16.10;;
6007;SDS011;3032;49.484;11.112;2023-03-03T06:22:32;33.33;;;17.27;;
6007;SDS011;3032;49.484;11.112;2023-03-03T06:24:57;36.23;;;18.53;;
6007;SDS011;3032;49.484;11.112;2023-03-03T06:27:23;33.60;;;17.87;;
6007;SDS011;3032;49.484;11.112;2023-03-03T06:29:49;37.83;;;18.83;;
6007;SDS011;3032;49.484;11.112;2023-03-03T06:32:14;34.53;;;18.53;;
6007;SDS011;3032;49.484;11.112;2023-03-03T06:34:40;31.07;;;17.67;;
6007;SDS011;3032;49.484;11.112;2023-03-03T06:37:05;33.57;;;17.50;;
6007;SDS011;3032;49.484;11.112;2023-03-03T06:39:31;38.10;;;20.03;;
6007;SDS011;3032;49.484;11.112;2023-03-03T06:41:57;31.63;;;18.17;;
6007;SDS011;3032;49.484;11.112;2023-03-03T06:44:22;30.53;;;17.83;;
6007;SDS011;3032;49.484;11.112;2023-03-03T06:46:48;30.47;;;17.47;;
6007;SDS011;3032;49.484;11.112;2023-03-03T06:49:13;29.33;;;18.37;;
6007;SDS011;3032;49.484;11.112;2023-03-03T06:51:39;27.23;;;17.00;;
6007;SDS011;3032;49.484;11.112;2023-03-03T06:54:15;32.17;;;17.47;;
6007;SDS011;3032;49.484;11.112;2023-03-03T06:56:42;26.05;;;15.93;;
6007;SDS011;3032;49.484;11.112;2023-03-03T06:59:10;26.92;;;17.58;;
6007;SDS011;3032;49.484;11.112;2023-03-03T07:01:44;32.15;;;19.30;;
6007;SDS011;3032;49.484;11.112;2023-03-03T07:06:50;35.00;;;21.60;;
6007;SDS011;3032;49.484;11.112;2023-03-03T07:09:25;30.43;;;18.97;;
6007;SDS011;3032;49.484;11.112;2023-03-03T07:11:59;32.15;;;20.05;;
6007;SDS011;3032;49.484;11.112;2023-03-03T07:14:27;32.30;;;19.88;;
6007;SDS011;3032;49.484;11.112;2023-03-03T07:16:57;32.60;;;20.20;;
6007;SDS011;3032;49.484;11.112;2023-03-03T07:19:32;32.10;;;20.42;;
6007;SDS011;3032;49.484;11.112;2023-03-03T07:22:22;32.97;;;20.42;;
6007;SDS011;3032;49.484;11.112;2023-03-03T07:24:49;36.22;;;20.80;;
6007;SDS011;3032;49.484;11.112;2023-03-03T07:27:24;35.40;;;20.60;;
6007;SDS011;3032;49.484;11.112;2023-03-03T07:29:54;32.05;;;19.77;;
6007;SDS011;3032;49.484;11.112;2023-03-03T07:32:38;35.65;;;20.58;;
6007;SDS011;3032;49.484;11.112;2023-03-03T07:35:51;32.58;;;19.98;;
6007;SDS011;3032;49.484;11.112;2023-03-03T07:38:15;35.35;;;19.88;;
6007;SDS011;3032;49.484;11.112;2023-03-03T07:40:48;33.60;;;20.33;;
6007;SDS011;3032;49.484;11.112;2023-03-03T07:45:47;34.90;;;20.13;;
6007;SDS011;3032;49.484;11.112;2023-03-03T07:48:46;34.20;;;20.90;;
6007;SDS011;3032;49.484;11.112;2023-03-03T07:56:52;38.50;;;22.60;;
6007;SDS011;3032;49.484;11.112;2023-03-03T07:59:23;37.35;;;24.67;;
6007;SDS011;3032;49.484;11.112;2023-03-03T08:01:50;38.13;;;25.13;;
6007;SDS011;3032;49.484;11.112;2023-03-03T08:04:21;40.08;;;27.05;;
6007;SDS011;3032;49.484;11.112;2023-03-03T08:06:52;39.45;;;26.85;;
6007;SDS011;3032;49.484;11.112;2023-03-03T08:09:24;36.72;;;25.20;;
6007;SDS011;3032;49.484;11.112;2023-03-03T08:14:36;39.33;;;26.90;;
6007;SDS011;3032;49.484;11.112;2023-03-03T08:17:21;37.42;;;26.30;;
6007;SDS011;3032;49.484;11.112;2023-03-03T08:19:54;36.72;;;26.58;;
6007;SDS011;3032;49.484;11.112;2023-03-03T08:22:26;37.10;;;25.80;;
6007;SDS011;3032;49.484;11.112;2023-03-03T08:24:57;36.60;;;24.98;;
6007;SDS011;3032;49.484;11.112;2023-03-03T08:27:22;37.30;;;26.20;;
6007;SDS011;3032;49.484;11.112;2023-03-03T08:29:48;36.83;;;26.43;;
6007;SDS011;3032;49.484;11.112;2023-03-03T08:32:14;35.90;;;25.73;;
6007;SDS011;3032;49.484;11.112;2023-03-03T08:34:40;35.37;;;26.13;;
6007;SDS011;3032;49.484;11.112;2023-03-03T08:37:05;40.10;;;26.47;;
6007;SDS011;3032;49.484;11.112;2023-03-03T08:39:31;35.00;;;25.00;;
6007;SDS011;3032;49.484;11.112;2023-03-03T08:41:57;34.60;;;23.97;;
6007;SDS011;3032;49.484;11.112;2023-03-03T08:44:22;36.80;;;25.57;;
6007;SDS011;3032;49.484;11.112;2023-03-03T08:46:48;34.40;;;25.30;;
6007;SDS011;3032;49.484;11.112;2023-03-03T08:49:13;36.83;;;25.57;;
6007;SDS011;3032;49.484;11.112;2023-03-03T08:51:39;36.43;;;25.30;;
6007;SDS011;3032;49.484;11.112;2023-03-03T08:54:05;35.07;;;25.63;;
6007;SDS011;3032;49.484;11.112;2023-03-03T08:56:30;38.87;;;27.20;;
6007;SDS011;3032;49.484;11.112;2023-03-03T08:58:56;37.10;;;25.93;;
6007;SDS011;3032;49.484;11.112;2023-03-03T09:01:22;35.83;;;24.43;;
6007;SDS011;3032;49.484;11.112;2023-03-03T09:03:47;34.93;;;24.93;;
6007;SDS011;3032;49.484;11.112;2023-03-03T09:06:13;36.33;;;25.80;;
6007;SDS011;3032;49.484;11.112;2023-03-03T09:08:38;37.80;;;26.40;;
6007;SDS011;3032;49.484;11.112;2023-03-03T09:11:11;36.30;;;25.00;;
6007;SDS011;3032;49.484;11.112;2023-03-03T09:13:37;37.30;;;25.83;;
6007;SDS011;3032;49.484;11.112;2023-03-03T09:16:06;33.90;;;24.20;;
6007;SDS011;3032;49.484;11.112;2023-03-03T09:18:39;36.60;;;26.05;;
6007;SDS011;3032;49.484;11.112;2023-03-03T09:21:28;34.30;;;24.38;;
6007;SDS011;3032;49.484;11.112;2023-03-03T09:23:57;37.05;;;25.77;;
6007;SDS011;3032;49.484;11.112;2023-03-03T09:26:30;31.60;;;24.10;;
6007;SDS011;3032;49.484;11.112;2023-03-03T09:31:38;31.73;;;22.83;;
6007;SDS011;3032;49.484;11.112;2023-03-03T09:36:49;31.60;;;22.67;;
6007;SDS011;3032;49.484;11.112;2023-03-03T09:39:34;34.40;;;23.08;;
6007;SDS011;3032;49.484;11.112;2023-03-03T09:44:45;35.63;;;24.45;;
6007;SDS011;3032;49.484;11.112;2023-03-03T09:55:51;35.10;;;27.15;;
6007;SDS011;3032;49.484;11.112;2023-03-03T09:58:27;35.75;;;22.98;;
6007;SDS011;3032;49.484;11.112;2023-03-03T10:06:44;27.65;;;21.23;;
6007;SDS011;3032;49.484;11.112;2023-03-03T10:14:43;29.55;;;22.10;;
6007;SDS011;3032;49.484;11.112;2023-03-03T10:30:52;26.88;;;21.10;;
6007;SDS011;3032;49.484;11.112;2023-03-03T10:36:34;27.38;;;21.33;;
6007;SDS011;3032;49.484;11.112;2023-03-03T10:39:56;27.90;;;21.30;;
6007;SDS011;3032;49.484;11.112;2023-03-03T10:47:14;25.90;;;20.17;;
6007;SDS011;3032;49.484;11.112;2023-03-03T10:52:54;28.00;;;19.83;;
6007;SDS011;3032;49.484;11.112;2023-03-03T10:58:36;21.75;;;17.27;;
6007;SDS011;3032;49.484;11.112;2023-03-03T11:04:13;21.30;;;17.95;;
6007;SDS011;3032;49.484;11.112;2023-03-03T11:14:51;23.23;;;17.45;;
6007;SDS011;3032;49.484;11.112;2023-03-03T11:25:59;25.52;;;18.30;;
6007;SDS011;3032;49.484;11.112;2023-03-03T11:28:44;23.23;;;18.08;;
6007;SDS011;3032;49.484;11.112;2023-03-03T11:31:36;22.27;;;17.08;;
6007;SDS011;3032;49.484;11.112;2023-03-03T11:39:19;22.00;;;17.90;;
6007;SDS011;3032;49.484;11.112;2023-03-03T11:44:39;22.00;;;17.33;;
6007;SDS011;3032;49.484;11.112;2023-03-03T11:49:47;20.73;;;16.92;;
6007;SDS011;3032;49.484;11.112;2023-03-03T11:55:34;26.65;;;17.65;;
6007;SDS011;3032;49.484;11.112;2023-03-03T12:01:13;25.67;;;17.85;;
6007;SDS011;3032;49.484;11.112;2023-03-03T12:11:57;22.70;;;17.30;;
6007;SDS011;3032;49.484;11.112;2023-03-03T12:22:42;23.70;;;17.35;;
6007;SDS011;3032;49.484;11.112;2023-03-03T12:36:55;19.83;;;15.70;;
6007;SDS011;3032;49.484;11.112;2023-03-03T12:42:29;23.20;;;17.05;;
6007;SDS011;3032;49.484;11.112;2023-03-03T12:45:22;22.40;;;17.30;;
6007;SDS011;3032;49.484;11.112;2023-03-03T12:48:18;20.90;;;17.05;;
6007;SDS011;3032;49.484;11.112;2023-03-03T12:55:50;20.57;;;16.23;;
6007;SDS011;3032;49.484;11.112;2023-03-03T13:00:50;19.08;;;15.43;;
6007;SDS011;3032;49.484;11.112;2023-03-03T13:06:26;21.77;;;16.27;;
6007;SDS011;3032;49.484;11.112;2023-03-03T13:12:33;18.52;;;15.55;;
6007;SDS011;3032;49.484;11.112;2023-03-03T13:20:16;21.00;;;15.57;;
6007;SDS011;3032;49.484;11.112;2023-03-03T13:22:58;25.80;;;15.90;;
6007;SDS011;3032;49.484;11.112;2023-03-03T13:28:27;22.38;;;15.65;;
6007;SDS011;3032;49.484;11.112;2023-03-03T13:31:02;17.88;;;15.68;;
6007;SDS011;3032;49.484;11.112;2023-03-03T13:33:39;19.98;;;15.13;;
6007;SDS011;3032;49.484;11.112;2023-03-03T13:36:13;20.05;;;15.50;;
6007;SDS011;3032;49.484;11.112;2023-03-03T13:38:41;18.27;;;14.77;;
6007;SDS011;3032;49.484;11.112;2023-03-03T13:41:27;17.90;;;13.82;;
6007;SDS011;3032;49.484;11.112;2023-03-03T13:46:33;21.13;;;14.70;;
6007;SDS011;3032;49.484;11.112;2023-03-03T13:54:39;17.30;;;14.25;;
6007;SDS011;3032;49.484;11.112;2023-03-03T14:02:42;18.85;;;12.20;;
6007;SDS011;3032;49.484;11.112;2023-03-03T14:05:12;17.77;;;13.50;;
6007;SDS011;3032;49.484;11.112;2023-03-03T14:07:58;24.65;;;13.80;;
6007;SDS011;3032;49.484;11.112;2023-03-03T14:10:33;18.10;;;12.90;;
6007;SDS011;3032;49.484;11.112;2023-03-03T14:13:07;14.40;;;12.30;;
6007;SDS011;3032;49.484;11.112;2023-03-03T14:15:54;14.65;;;12.25;;
6007;SDS011;3032;49.484;11.112;2023-03-03T14:18:38;14.95;;;12.38;;
6007;SDS011;3032;49.484;11.112;2023-03-03T14:26:48;15.77;;;12.00;;
6007;SDS011;3032;49.484;11.112;2023-03-03T14:29:28;17.77;;;12.65;;
6007;SDS011;3032;49.484;11.112;2023-03-03T14:31:57;15.45;;;11.65;;
6007;SDS011;3032;49.484;11.112;2023-03-03T14:34:29;15.73;;;12.35;;
6007;SDS011;3032;49.484;11.112;2023-03-03T14:36:59;16.60;;;11.88;;
6007;SDS011;3032;49.484;11.112;2023-03-03T14:45:18;16.00;;;11.68;;
6007;SDS011;3032;49.484;11.112;2023-03-03T14:48:20;13.77;;;11.20;;
6007;SDS011;3032;49.484;11.112;2023-03-03T14:53:34;15.38;;;11.52;;
6007;SDS011;3032;49.484;11.112;2023-03-03T14:56:13;17.60;;;13.25;;
6007;SDS011;3032;49.484;11.112;2023-03-03T14:58:47;17.10;;;11.93;;
6007;SDS011;3032;49.484;11.112;2023-03-03T15:03:47;21.63;;;12.93;;
6007;SDS011;3032;49.484;11.112;2023-03-03T15:09:28;18.85;;;12.88;;
6007;SDS011;3032;49.484;11.112;2023-03-03T15:12:19;16.88;;;11.63;;
6007;SDS011;3032;49.484;11.112;2023-03-03T15:14:48;18.52;;;12.23;;
6007;SDS011;3032;49.484;11.112;2023-03-03T15:22:47;16.67;;;11.60;;
6007;SDS011;3032;49.484;11.112;2023-03-03T15:33:45;18.25;;;12.93;;
6007;SDS011;3032;49.484;11.112;2023-03-03T15:36:33;19.02;;;13.10;;
6007;SDS011;3032;49.484;11.112;2023-03-03T15:42:14;14.10;;;11.05;;
6007;SDS011;3032;49.484;11.112;2023-03-03T15:50:34;17.45;;;12.68;;
6007;SDS011;3032;49.484;11.112;2023-03-03T16:04:52;16.80;;;12.45;;
6007;SDS011;3032;49.484;11.112;2023-03-03T16:07:30;16.50;;;12.27;;
6007;SDS011;3032;49.484;11.112;2023-03-03T16:13:19;19.45;;;12.15;;
6007;SDS011;3032;49.484;11.112;2023-03-03T16:16:07;19.10;;;11.65;;
6007;SDS011;3032;49.484;11.112;2023-03-03T16:30:02;15.60;;;10.43;;
6007;SDS011;3032;49.484;11.112;2023-03-03T16:32:35;18.92;;;11.18;;
6007;SDS011;3032;49.484;11.112;2023-03-03T16:35:19;20.38;;;11.90;;
6007;SDS011;3032;49.484;11.112;2023-03-03T16:40:25;19.00;;;10.70;;
6007;SDS011;3032;49.484;11.112;2023-03-03T16:43:02;13.85;;;9.30;;
6007;SDS011;3032;49.484;11.112;2023-03-03T16:45:39;12.68;;;9.32;;
6007;SDS011;3032;49.484;11.112;2023-03-03T16:53:42;16.55;;;10.15;;
6007;SDS011;3032;49.484;11.112;2023-03-03T17:20:50;12.80;;;7.33;;
6007;SDS011;3032;49.484;11.112;2023-03-03T17:23:23;10.52;;;7.10;;
6007;SDS011;3032;49.484;11.112;2023-03-03T17:31:49;15.23;;;7.60;;
6007;SDS011;3032;49.484;11.112;2023-03-03T17:36:54;11.88;;;7.40;;
6007;SDS011;3032;49.484;11.112;2023-03-03T17:39:47;12.20;;;7.65;;
6007;SDS011;3032;49.484;11.112;2023-03-03T17:45:36;13.25;;;7.47;;
6007;SDS011;3032;49.484;11.112;2023-03-03T17:48:11;12.55;;;6.70;;
6007;SDS011;3032;49.484;11.112;2023-03-03T17:50:52;9.65;;;6.60;;
6007;SDS011;3032;49.484;11.112;2023-03-03T17:56:18;8.85;;;5.75;;
6007;SDS011;3032;49.484;11.112;2023-03-03T18:02:05;8.57;;;5.35;;
6007;SDS011;3032;49.484;11.112;2023-03-03T18:21:57;8.85;;;5.90;;
6007;SDS011;3032;49.484;11.112;2023-03-03T18:24:33;9.52;;;6.05;;
6007;SDS011;3032;49.484;11.112;2023-03-03T18:27:12;10.90;;;6.05;;
6007;SDS011;3032;49.484;11.112;2023-03-03T18:40:47;12.23;;;7.50;;
6007;SDS011;3032;49.484;11.112;2023-03-03T18:46:10;14.00;;;7.90;;
6007;SDS011;3032;49.484;11.112;2023-03-03T18:48:50;12.98;;;7.80;;
6007;SDS011;3032;49.484;11.112;2023-03-03T19:04:38;23.25;;;11.80;;
6007;SDS011;3032;49.484;11.112;2023-03-03T19:12:16;12.73;;;8.70;;
6007;SDS011;3032;49.484;11.112;2023-03-03T19:14:44;13.93;;;8.85;;
6007;SDS011;3032;49.484;11.112;2023-03-03T19:22:29;17.92;;;9.90;;
6007;SDS011;3032;49.484;11.112;2023-03-03T19:33:15;23.17;;;10.75;;
6007;SDS011;3032;49.484;11.112;2023-03-03T19:36:06;24.30;;;13.70;;
6007;SDS011;3032;49.484;11.112;2023-03-03T19:50:11;26.95;;;14.63;;
6007;SDS011;3032;49.484;11.112;2023-03-03T19:52:59;27.25;;;16.02;;
6007;SDS011;3032;49.484;11.112;2023-03-03T20:01:43;27.80;;;16.98;;
6007;SDS011;3032;49.484;11.112;2023-03-03T20:04:31;29.23;;;16.65;;
6007;SDS011;3032;49.484;11.112;2023-03-03T20:24:48;33.13;;;18.42;;
6007;SDS011;3032;49.484;11.112;2023-03-03T20:27:27;31.02;;;16.52;;
6007;SDS011;3032;49.484;11.112;2023-03-03T20:36:07;32.55;;;17.27;;
6007;SDS011;3032;49.484;11.112;2023-03-03T20:44:12;26.65;;;15.25;;
6007;SDS011;3032;49.484;11.112;2023-03-03T20:47:07;26.20;;;14.90;;
6007;SDS011;3032;49.484;11.112;2023-03-03T21:03:39;16.73;;;10.75;;
6007;SDS011;3032;49.484;11.112;2023-03-03T21:06:10;16.95;;;10.95;;
6007;SDS011;3032;49.484;11.112;2023-03-03T21:08:55;18.20;;;10.90;;
6007;SDS011;3032;49.484;11.112;2023-03-03T21:11:22;17.20;;;10.50;;
6007;SDS011;3032;49.484;11.112;2023-03-03T21:13:54;18.08;;;10.68;;
6007;SDS011;3032;49.484;11.112;2023-03-03T21:18:56;16.27;;;10.43;;
6007;SDS011;3032;49.484;11.112;2023-03-03T21:21:39;24.88;;;15.13;;
6007;SDS011;3032;49.484;11.112;2023-03-03T21:24:06;20.33;;;11.32;;
6007;SDS011;3032;49.484;11.112;2023-03-03T21:29:34;14.90;;;9.73;;
6007;SDS011;3032;49.484;11.112;2023-03-03T21:32:04;19.98;;;11.68;;
6007;SDS011;3032;49.484;11.112;2023-03-03T21:34:31;46.38;;;23.60;;
6007;SDS011;3032;49.484;11.112;2023-03-03T21:36:58;62.67;;;31.13;;
6007;SDS011;3032;49.484;11.112;2023-03-03T21:39:32;20.48;;;11.25;;
6007;SDS011;3032;49.484;11.112;2023-03-03T21:42:06;18.65;;;10.82;;
6007;SDS011;3032;49.484;11.112;2023-03-03T21:47:21;21.85;;;9.95;;
6007;SDS011;3032;49.484;11.112;2023-03-03T21:49:51;17.45;;;9.85;;
6007;SDS011;3032;49.484;11.112;2023-03-03T21:52:18;19.00;;;9.52;;
6007;SDS011;3032;49.484;11.112;2023-03-03T21:54:45;14.95;;;9.50;;
6007;SDS011;3032;49.484;11.112;2023-03-03T21:57:12;16.15;;;9.77;;
6007;SDS011;3032;49.484;11.112;2023-03-03T21:59:38;16.83;;;10.70;;
6007;SDS011;3032;49.484;11.112;2023-03-03T22:02:04;16.00;;;9.00;;
6007;SDS011;3032;49.484;11.112;2023-03-03T22:04:30;22.63;;;9.77;;
6007;SDS011;3032;49.484;11.112;2023-03-03T22:06:56;17.75;;;10.65;;
6007;SDS011;3032;49.484;11.112;2023-03-03T22:09:22;18.13;;;10.83;;
6007;SDS011;3032;49.484;11.112;2023-03-03T22:11:47;20.13;;;9.80;;
6007;SDS011;3032;49.484;11.112;2023-03-03T22:14:13;17.60;;;10.50;;
6007;SDS011;3032;49.484;11.112;2023-03-03T22:16:39;17.45;;;10.80;;
6007;SDS011;3032;49.484;11.112;2023-03-03T22:19:04;19.33;;;10.97;;
6007;SDS011;3032;49.484;11.112;2023-03-03T22:21:33;18.88;;;10.75;;
6007;SDS011;3032;49.484;11.112;2023-03-03T22:23:59;20.13;;;11.50;;
6007;SDS011;3032;49.484;11.112;2023-03-03T22:26:24;23.67;;;12.70;;
6007;SDS011;3032;49.484;11.112;2023-03-03T22:28:50;20.37;;;11.33;;
6007;SDS011;3032;49.484;11.112;2023-03-03T22:31:16;22.87;;;12.40;;